sensor_id;sensor_type;location;lat;lon;timestamp;pressure;altitude;pressure_sealevel;temperature;humidity
28935;BME280;16044;52.726;-2.108;2022-09-27T00:00:44;99474.88;;;8.44;82.70
28935;BME280;16044;52.726;-2.108;2022-09-27T00:03:12;99477.66;;;8.36;82.53
28935;BME280;16044;52.726;-2.108;2022-09-27T00:05:39;99477.56;;;8.29;82.45
28935;BME280;16044;52.726;-2.108;2022-09-27T00:08:06;99486.59;;;8.22;82.56
28935;BME280;16044;52.726;-2.108;2022-09-27T00:10:33;99489.56;;;8.12;83.00
28935;BME280;16044;52.726;-2.108;2022-09-27T00:13:00;99492.94;;;8.14;82.63
28935;BME280;16044;52.726;-2.108;2022-09-27T00:15:27;99493.38;;;8.03;82.91
28935;BME280;16044;52.726;-2.108;2022-09-27T00:17:54;99482.13;;;7.99;82.81
28935;BME280;16044;52.726;-2.108;2022-09-27T00:20:21;99485.56;;;7.93;82.98
28935;BME280;16044;52.726;-2.108;2022-09-27T00:22:48;99492.06;;;7.98;82.90
28935;BME280;16044;52.726;-2.108;2022-09-27T00:25:15;99486.13;;;8.03;82.98
28935;BME280;16044;52.726;-2.108;2022-09-27T00:27:43;99484.94;;;8.06;83.27
28935;BME280;16044;52.726;-2.108;2022-09-27T00:30:11;99486.88;;;8.12;83.08
28935;BME280;16044;52.726;-2.108;2022-09-27T00:32:38;99487.81;;;8.19;82.83
28935;BME280;16044;52.726;-2.108;2022-09-27T00:35:05;99493.22;;;8.19;82.98
28935;BME280;16044;52.726;-2.108;2022-09-27T00:37:32;99493.94;;;8.28;82.77
28935;BME280;16044;52.726;-2.108;2022-09-27T00:39:59;99489.19;;;8.30;82.91
28935;BME280;16044;52.726;-2.108;2022-09-27T00:42:26;99487.59;;;8.35;82.68
28935;BME280;16044;52.726;-2.108;2022-09-27T00:45:11;99493.16;;;8.42;82.40
28935;BME280;16044;52.726;-2.108;2022-09-27T00:48:06;99484.84;;;8.44;82.64
28935;BME280;16044;52.726;-2.108;2022-09-27T00:50:41;99481.75;;;8.47;82.68
28935;BME280;16044;52.726;-2.108;2022-09-27T00:53:17;99473.75;;;8.38;82.93
28935;BME280;16044;52.726;-2.108;2022-09-27T00:55:52;99474.59;;;8.54;82.07
28935;BME280;16044;52.726;-2.108;2022-09-27T00:58:25;99472.75;;;8.54;82.21
28935;BME280;16044;52.726;-2.108;2022-09-27T01:01:06;99460.91;;;8.55;82.08
28935;BME280;16044;52.726;-2.108;2022-09-27T01:03:43;99467.63;;;8.45;82.39
28935;BME280;16044;52.726;-2.108;2022-09-27T01:06:15;99461.19;;;8.46;82.38
28935;BME280;16044;52.726;-2.108;2022-09-27T01:08:44;99464.28;;;8.43;82.66
28935;BME280;16044;52.726;-2.108;2022-09-27T01:14:03;99454.56;;;8.33;82.59
28935;BME280;16044;52.726;-2.108;2022-09-27T01:32:23;99457.75;;;8.07;83.66
28935;BME280;16044;52.726;-2.108;2022-09-27T01:38:11;99448.06;;;8.13;83.56
28935;BME280;16044;52.726;-2.108;2022-09-27T01:40:52;99442.47;;;8.14;83.49
28935;BME280;16044;52.726;-2.108;2022-09-27T01:43:36;99445.44;;;8.19;83.39
28935;BME280;16044;52.726;-2.108;2022-09-27T01:46:10;99446.22;;;8.13;83.41
28935;BME280;16044;52.726;-2.108;2022-09-27T01:48:45;99436.59;;;8.11;83.20
28935;BME280;16044;52.726;-2.108;2022-09-27T01:51:30;99439.03;;;8.06;83.46
28935;BME280;16044;52.726;-2.108;2022-09-27T01:54:03;99444.81;;;8.03;83.57
28935;BME280;16044;52.726;-2.108;2022-09-27T01:56:36;99442.28;;;8.01;83.63
28935;BME280;16044;52.726;-2.108;2022-09-27T01:59:15;99449.91;;;7.97;83.92
28935;BME280;16044;52.726;-2.108;2022-09-27T02:01:49;99446.50;;;8.04;83.97
28935;BME280;16044;52.726;-2.108;2022-09-27T02:04:22;99438.66;;;8.09;84.17
28935;BME280;16044;52.726;-2.108;2022-09-27T02:06:54;99435.78;;;8.10;84.11
28935;BME280;16044;52.726;-2.108;2022-09-27T02:09:49;99430.84;;;8.14;84.17
28935;BME280;16044;52.726;-2.108;2022-09-27T02:12:26;99431.31;;;8.17;84.57
28935;BME280;16044;52.726;-2.108;2022-09-27T02:15:01;99421.75;;;8.15;84.83
28935;BME280;16044;52.726;-2.108;2022-09-27T02:17:52;99429.72;;;8.23;84.47
28935;BME280;16044;52.726;-2.108;2022-09-27T02:20:40;99416.97;;;8.32;84.18
28935;BME280;16044;52.726;-2.108;2022-09-27T02:28:41;99406.59;;;8.35;84.44
28935;BME280;16044;52.726;-2.108;2022-09-27T02:31:12;99407.06;;;8.39;84.49
28935;BME280;16044;52.726;-2.108;2022-09-27T02:33:44;99408.66;;;8.33;85.80
28935;BME280;16044;52.726;-2.108;2022-09-27T02:36:14;99401.03;;;8.37;85.59
28935;BME280;16044;52.726;-2.108;2022-09-27T02:38:41;99396.56;;;8.44;85.86
28935;BME280;16044;52.726;-2.108;2022-09-27T02:41:18;99371.78;;;8.40;85.87
28935;BME280;16044;52.726;-2.108;2022-09-27T02:43:49;99378.22;;;8.39;86.29
28935;BME280;16044;52.726;-2.108;2022-09-27T02:52:32;99372.91;;;8.46;86.48
28935;BME280;16044;52.726;-2.108;2022-09-27T02:58:51;99383.06;;;8.44;86.78
28935;BME280;16044;52.726;-2.108;2022-09-27T03:01:37;99362.03;;;8.39;86.73
28935;BME280;16044;52.726;-2.108;2022-09-27T03:04:46;99362.31;;;8.45;86.20
28935;BME280;16044;52.726;-2.108;2022-09-27T03:07:18;99360.91;;;8.49;86.04
28935;BME280;16044;52.726;-2.108;2022-09-27T03:09:50;99354.28;;;8.36;85.84
28935;BME280;16044;52.726;-2.108;2022-09-27T03:12:19;99355.06;;;8.45;85.59
28935;BME280;16044;52.726;-2.108;2022-09-27T03:14:54;99347.97;;;8.44;85.27
28935;BME280;16044;52.726;-2.108;2022-09-27T03:17:23;99352.22;;;8.38;85.26
28935;BME280;16044;52.726;-2.108;2022-09-27T03:19:50;99358.13;;;8.42;85.04
28935;BME280;16044;52.726;-2.108;2022-09-27T03:22:17;99351.72;;;8.43;84.39
28935;BME280;16044;52.726;-2.108;2022-09-27T03:24:44;99356.25;;;8.43;84.34
28935;BME280;16044;52.726;-2.108;2022-09-27T03:27:11;99351.00;;;8.41;84.50
28935;BME280;16044;52.726;-2.108;2022-09-27T03:29:38;99355.69;;;8.47;84.33
28935;BME280;16044;52.726;-2.108;2022-09-27T03:32:05;99357.63;;;8.38;84.67
28935;BME280;16044;52.726;-2.108;2022-09-27T03:34:32;99361.75;;;8.34;84.84
28935;BME280;16044;52.726;-2.108;2022-09-27T03:36:59;99353.56;;;8.43;84.52
28935;BME280;16044;52.726;-2.108;2022-09-27T03:39:25;99360.63;;;8.44;84.57
28935;BME280;16044;52.726;-2.108;2022-09-27T03:41:52;99352.34;;;8.45;84.51
28935;BME280;16044;52.726;-2.108;2022-09-27T03:44:19;99336.16;;;8.45;84.49
28935;BME280;16044;52.726;-2.108;2022-09-27T03:46:46;99348.88;;;8.36;85.06
28935;BME280;16044;52.726;-2.108;2022-09-27T03:49:13;99342.91;;;8.41;84.52
28935;BME280;16044;52.726;-2.108;2022-09-27T03:51:40;99335.03;;;8.39;84.80
28935;BME280;16044;52.726;-2.108;2022-09-27T03:54:07;99337.16;;;8.44;84.60
28935;BME280;16044;52.726;-2.108;2022-09-27T03:56:34;99337.34;;;8.43;84.83
28935;BME280;16044;52.726;-2.108;2022-09-27T03:59:01;99336.69;;;8.40;85.16
28935;BME280;16044;52.726;-2.108;2022-09-27T04:01:29;99331.41;;;8.47;84.85
28935;BME280;16044;52.726;-2.108;2022-09-27T04:03:56;99315.56;;;8.44;85.04
28935;BME280;16044;52.726;-2.108;2022-09-27T04:06:23;99311.91;;;8.37;85.50
28935;BME280;16044;52.726;-2.108;2022-09-27T04:08:50;99319.72;;;8.47;85.21
28935;BME280;16044;52.726;-2.108;2022-09-27T04:11:16;99306.22;;;8.47;85.17
28935;BME280;16044;52.726;-2.108;2022-09-27T04:13:44;99308.56;;;8.50;85.27
28935;BME280;16044;52.726;-2.108;2022-09-27T04:16:12;99315.00;;;8.49;85.63
28935;BME280;16044;52.726;-2.108;2022-09-27T04:18:39;99310.16;;;8.44;86.14
28935;BME280;16044;52.726;-2.108;2022-09-27T04:21:06;99308.56;;;8.50;86.45
28935;BME280;16044;52.726;-2.108;2022-09-27T04:23:34;99309.34;;;8.44;87.00
28935;BME280;16044;52.726;-2.108;2022-09-27T04:26:02;99292.84;;;8.38;87.38
28935;BME280;16044;52.726;-2.108;2022-09-27T04:28:29;99287.13;;;8.48;87.22
28935;BME280;16044;52.726;-2.108;2022-09-27T04:30:57;99291.72;;;8.48;87.22
28935;BME280;16044;52.726;-2.108;2022-09-27T04:33:24;99284.91;;;8.52;87.36
28935;BME280;16044;52.726;-2.108;2022-09-27T04:35:51;99286.38;;;8.54;87.53
28935;BME280;16044;52.726;-2.108;2022-09-27T04:38:36;99292.34;;;8.50;87.85
28935;BME280;16044;52.726;-2.108;2022-09-27T04:41:04;99291.06;;;8.46;88.29
28935;BME280;16044;52.726;-2.108;2022-09-27T04:43:33;99296.03;;;8.42;88.98
28935;BME280;16044;52.726;-2.108;2022-09-27T04:46:00;99284.63;;;8.47;88.71
28935;BME280;16044;52.726;-2.108;2022-09-27T04:48:27;99287.59;;;8.52;88.86
28935;BME280;16044;52.726;-2.108;2022-09-27T04:50:55;99280.13;;;8.54;88.84
28935;BME280;16044;52.726;-2.108;2022-09-27T04:53:24;99278.31;;;8.39;90.07
28935;BME280;16044;52.726;-2.108;2022-09-27T04:55:52;99275.13;;;8.51;89.21
28935;BME280;16044;52.726;-2.108;2022-09-27T04:58:21;99270.09;;;8.48;89.62
28935;BME280;16044;52.726;-2.108;2022-09-27T05:00:49;99277.75;;;8.44;89.44
28935;BME280;16044;52.726;-2.108;2022-09-27T05:03:21;99270.09;;;8.48;89.75
28935;BME280;16044;52.726;-2.108;2022-09-27T05:05:48;99271.78;;;8.49;89.68
28935;BME280;16044;52.726;-2.108;2022-09-27T05:08:15;99275.25;;;8.43;89.91
28935;BME280;16044;52.726;-2.108;2022-09-27T05:10:42;99270.75;;;8.50;89.86
28935;BME280;16044;52.726;-2.108;2022-09-27T05:13:09;99272.63;;;8.49;89.59
28935;BME280;16044;52.726;-2.108;2022-09-27T05:15:36;99268.34;;;8.40;90.50
28935;BME280;16044;52.726;-2.108;2022-09-27T05:18:03;99279.44;;;8.45;90.19
28935;BME280;16044;52.726;-2.108;2022-09-27T05:20:30;99268.50;;;8.53;89.48
28935;BME280;16044;52.726;-2.108;2022-09-27T05:22:57;99261.41;;;8.52;89.61
28935;BME280;16044;52.726;-2.108;2022-09-27T05:25:24;99266.44;;;8.55;89.36
28935;BME280;16044;52.726;-2.108;2022-09-27T05:27:51;99272.03;;;8.54;89.24
28935;BME280;16044;52.726;-2.108;2022-09-27T05:30:18;99261.88;;;8.56;89.53
28935;BME280;16044;52.726;-2.108;2022-09-27T05:32:45;99260.84;;;8.57;89.17
28935;BME280;16044;52.726;-2.108;2022-09-27T05:35:16;99246.53;;;8.56;89.52
28935;BME280;16044;52.726;-2.108;2022-09-27T05:37:54;99237.88;;;8.46;89.91
28935;BME280;16044;52.726;-2.108;2022-09-27T05:40:23;99245.66;;;8.56;89.53
28935;BME280;16044;52.726;-2.108;2022-09-27T05:43:08;99251.22;;;8.48;89.88
28935;BME280;16044;52.726;-2.108;2022-09-27T05:45:35;99244.84;;;8.55;89.48
28935;BME280;16044;52.726;-2.108;2022-09-27T05:48:02;99245.66;;;8.56;89.48
28935;BME280;16044;52.726;-2.108;2022-09-27T05:50:29;99245.22;;;8.52;89.62
28935;BME280;16044;52.726;-2.108;2022-09-27T05:52:56;99241.31;;;8.55;89.42
28935;BME280;16044;52.726;-2.108;2022-09-27T05:55:23;99239.06;;;8.58;89.22
28935;BME280;16044;52.726;-2.108;2022-09-27T05:57:59;99236.09;;;8.53;89.12
28935;BME280;16044;52.726;-2.108;2022-09-27T06:00:28;99231.06;;;8.50;89.81
28935;BME280;16044;52.726;-2.108;2022-09-27T06:02:57;99225.09;;;8.55;89.37
28935;BME280;16044;52.726;-2.108;2022-09-27T06:05:27;99213.25;;;8.56;89.19
28935;BME280;16044;52.726;-2.108;2022-09-27T06:08:00;99216.59;;;8.58;88.93
28935;BME280;16044;52.726;-2.108;2022-09-27T06:10:30;99209.53;;;8.57;88.93
28935;BME280;16044;52.726;-2.108;2022-09-27T06:13:04;99218.66;;;8.56;88.90
28935;BME280;16044;52.726;-2.108;2022-09-27T06:15:40;99219.28;;;8.58;89.04
28935;BME280;16044;52.726;-2.108;2022-09-27T06:18:14;99223.69;;;8.59;88.87
28935;BME280;16044;52.726;-2.108;2022-09-27T06:20:45;99228.88;;;8.61;88.83
28935;BME280;16044;52.726;-2.108;2022-09-27T06:23:13;99230.34;;;8.63;88.86
28935;BME280;16044;52.726;-2.108;2022-09-27T06:25:45;99231.19;;;8.64;88.67
28935;BME280;16044;52.726;-2.108;2022-09-27T06:28:15;99220.38;;;8.64;88.87
28935;BME280;16044;52.726;-2.108;2022-09-27T06:30:48;99222.88;;;8.65;88.57
28935;BME280;16044;52.726;-2.108;2022-09-27T06:33:18;99219.97;;;8.60;88.95
28935;BME280;16044;52.726;-2.108;2022-09-27T06:35:46;99222.84;;;8.58;89.12
28935;BME280;16044;52.726;-2.108;2022-09-27T06:38:16;99212.88;;;8.59;88.89
28935;BME280;16044;52.726;-2.108;2022-09-27T06:40:46;99212.88;;;8.59;89.36
28935;BME280;16044;52.726;-2.108;2022-09-27T06:43:16;99213.50;;;8.61;89.11
28935;BME280;16044;52.726;-2.108;2022-09-27T06:45:46;99209.78;;;8.62;89.29
28935;BME280;16044;52.726;-2.108;2022-09-27T06:48:14;99209.38;;;8.65;89.13
28935;BME280;16044;52.726;-2.108;2022-09-27T06:50:44;99203.97;;;8.65;89.19
28935;BME280;16044;52.726;-2.108;2022-09-27T06:53:13;99206.69;;;8.65;89.72
28935;BME280;16044;52.726;-2.108;2022-09-27T06:55:41;99205.88;;;8.71;89.47
28935;BME280;16044;52.726;-2.108;2022-09-27T06:58:10;99208.03;;;8.76;89.40
28935;BME280;16044;52.726;-2.108;2022-09-27T07:00:55;99207.19;;;8.75;89.70
28935;BME280;16044;52.726;-2.108;2022-09-27T07:03:24;99209.25;;;8.73;89.69
28935;BME280;16044;52.726;-2.108;2022-09-27T07:06:04;99210.13;;;8.81;89.66
28935;BME280;16044;52.726;-2.108;2022-09-27T07:08:32;99208.31;;;8.88;89.41
28935;BME280;16044;52.726;-2.108;2022-09-27T07:11:05;99205.34;;;8.83;89.44
28935;BME280;16044;52.726;-2.108;2022-09-27T07:13:33;99203.06;;;8.80;89.68
28935;BME280;16044;52.726;-2.108;2022-09-27T07:16:02;99199.56;;;8.86;89.33
28935;BME280;16044;52.726;-2.108;2022-09-27T07:18:29;99200.84;;;8.90;89.29
28935;BME280;16044;52.726;-2.108;2022-09-27T07:20:59;99195.22;;;8.85;90.16
28935;BME280;16044;52.726;-2.108;2022-09-27T07:23:27;99195.44;;;8.90;89.92
28935;BME280;16044;52.726;-2.108;2022-09-27T07:25:54;99194.88;;;9.01;89.59
28935;BME280;16044;52.726;-2.108;2022-09-27T07:28:21;99193.00;;;9.02;89.81
28935;BME280;16044;52.726;-2.108;2022-09-27T07:30:53;99188.25;;;9.04;89.88
28935;BME280;16044;52.726;-2.108;2022-09-27T07:33:21;99189.97;;;9.11;89.79
28935;BME280;16044;52.726;-2.108;2022-09-27T07:35:48;99199.16;;;9.17;89.80
28935;BME280;16044;52.726;-2.108;2022-09-27T07:38:15;99188.97;;;9.26;89.53
28935;BME280;16044;52.726;-2.108;2022-09-27T07:40:43;99181.72;;;9.26;89.83
28935;BME280;16044;52.726;-2.108;2022-09-27T07:43:10;99169.91;;;9.34;89.21
28935;BME280;16044;52.726;-2.108;2022-09-27T07:45:37;99168.03;;;9.41;89.05
28935;BME280;16044;52.726;-2.108;2022-09-27T07:48:06;99169.09;;;9.40;89.54
28935;BME280;16044;52.726;-2.108;2022-09-27T07:50:35;99193.44;;;9.47;89.48
28935;BME280;16044;52.726;-2.108;2022-09-27T07:53:04;99191.81;;;9.46;90.11
28935;BME280;16044;52.726;-2.108;2022-09-27T07:55:31;99189.34;;;9.51;90.05
28935;BME280;16044;52.726;-2.108;2022-09-27T07:58:08;99185.19;;;9.62;89.43
28935;BME280;16044;52.726;-2.108;2022-09-27T08:00:38;99183.97;;;9.64;89.45
28935;BME280;16044;52.726;-2.108;2022-09-27T08:03:08;99183.53;;;9.67;90.10
28935;BME280;16044;52.726;-2.108;2022-09-27T08:05:37;99178.16;;;9.74;90.24
28935;BME280;16044;52.726;-2.108;2022-09-27T08:08:04;99174.88;;;9.85;89.89
28935;BME280;16044;52.726;-2.108;2022-09-27T08:10:32;99175.50;;;9.94;89.28
28935;BME280;16044;52.726;-2.108;2022-09-27T08:13:03;99175.31;;;9.95;89.21
28935;BME280;16044;52.726;-2.108;2022-09-27T08:15:32;99178.63;;;9.98;89.48
28935;BME280;16044;52.726;-2.108;2022-09-27T08:18:01;99164.06;;;10.05;89.36
28935;BME280;16044;52.726;-2.108;2022-09-27T08:20:28;99164.06;;;10.05;88.86
28935;BME280;16044;52.726;-2.108;2022-09-27T08:22:55;99172.81;;;10.07;88.54
28935;BME280;16044;52.726;-2.108;2022-09-27T08:25:22;99168.25;;;10.14;87.99
28935;BME280;16044;52.726;-2.108;2022-09-27T08:27:57;99174.06;;;10.05;88.24
28935;BME280;16044;52.726;-2.108;2022-09-27T08:30:26;99167.44;;;10.27;87.75
28935;BME280;16044;52.726;-2.108;2022-09-27T08:32:59;99167.06;;;10.37;87.98
28935;BME280;16044;52.726;-2.108;2022-09-27T08:35:28;99167.47;;;10.54;88.17
28935;BME280;16044;52.726;-2.108;2022-09-27T08:37:58;99163.72;;;10.68;87.40
28935;BME280;16044;52.726;-2.108;2022-09-27T08:40:53;99173.31;;;10.78;86.88
28935;BME280;16044;52.726;-2.108;2022-09-27T08:48:41;99170.81;;;10.76;85.50
28935;BME280;16044;52.726;-2.108;2022-09-27T08:51:11;99166.41;;;10.75;85.36
28935;BME280;16044;52.726;-2.108;2022-09-27T08:53:50;99178.28;;;10.81;85.51
28935;BME280;16044;52.726;-2.108;2022-09-27T08:56:21;99173.28;;;10.91;85.29
28935;BME280;16044;52.726;-2.108;2022-09-27T08:58:54;99167.84;;;10.98;85.38
28935;BME280;16044;52.726;-2.108;2022-09-27T09:01:25;99172.66;;;10.89;85.12
28935;BME280;16044;52.726;-2.108;2022-09-27T09:03:57;99177.03;;;10.90;84.55
28935;BME280;16044;52.726;-2.108;2022-09-27T09:06:55;99169.75;;;10.84;83.72
28935;BME280;16044;52.726;-2.108;2022-09-27T09:20:14;99165.34;;;10.83;83.86
28935;BME280;16044;52.726;-2.108;2022-09-27T09:22:56;99173.31;;;10.78;83.52
28935;BME280;16044;52.726;-2.108;2022-09-27T09:28:57;99194.13;;;10.77;81.73
28935;BME280;16044;52.726;-2.108;2022-09-27T09:34:39;99197.06;;;10.49;79.88
28935;BME280;16044;52.726;-2.108;2022-09-27T09:37:20;99198.34;;;10.40;79.67
28935;BME280;16044;52.726;-2.108;2022-09-27T09:40:13;99199.13;;;10.27;79.88
28935;BME280;16044;52.726;-2.108;2022-09-27T09:45:39;99195.09;;;10.03;80.45
28935;BME280;16044;52.726;-2.108;2022-09-27T09:50:59;99195.47;;;9.86;81.24
28935;BME280;16044;52.726;-2.108;2022-09-27T09:54:14;99193.16;;;9.76;81.23
28935;BME280;16044;52.726;-2.108;2022-09-27T09:56:39;99191.66;;;9.67;81.60
28935;BME280;16044;52.726;-2.108;2022-09-27T10:01:57;99199.34;;;9.64;82.33
28935;BME280;16044;52.726;-2.108;2022-09-27T10:04:39;99193.78;;;9.72;82.39
28935;BME280;16044;52.726;-2.108;2022-09-27T10:07:07;99198.38;;;9.78;82.64
28935;BME280;16044;52.726;-2.108;2022-09-27T10:09:34;99199.81;;;9.74;82.84
28935;BME280;16044;52.726;-2.108;2022-09-27T10:12:02;99197.31;;;9.79;82.95
28935;BME280;16044;52.726;-2.108;2022-09-27T10:14:29;99193.16;;;9.76;82.51
28935;BME280;16044;52.726;-2.108;2022-09-27T10:17:00;99193.19;;;9.83;82.60
28935;BME280;16044;52.726;-2.108;2022-09-27T10:19:32;99189.44;;;9.84;81.78
28935;BME280;16044;52.726;-2.108;2022-09-27T10:22:04;99185.50;;;9.87;81.74
28935;BME280;16044;52.726;-2.108;2022-09-27T10:25:00;99191.31;;;9.84;80.50
28935;BME280;16044;52.726;-2.108;2022-09-27T10:27:40;99178.84;;;9.89;79.36
28935;BME280;16044;52.726;-2.108;2022-09-27T10:30:29;99183.00;;;9.85;80.14
28935;BME280;16044;52.726;-2.108;2022-09-27T10:33:15;99179.50;;;9.98;80.54
28935;BME280;16044;52.726;-2.108;2022-09-27T10:35:46;99182.00;;;10.13;80.81
28935;BME280;16044;52.726;-2.108;2022-09-27T10:38:29;99174.50;;;10.15;80.89
28935;BME280;16044;52.726;-2.108;2022-09-27T10:41:16;99163.69;;;10.22;81.22
28935;BME280;16044;52.726;-2.108;2022-09-27T10:43:51;99162.88;;;10.41;80.86
28935;BME280;16044;52.726;-2.108;2022-09-27T10:46:25;99156.66;;;10.47;81.58
28935;BME280;16044;52.726;-2.108;2022-09-27T10:51:56;99160.78;;;10.77;81.75
28935;BME280;16044;52.726;-2.108;2022-09-27T10:54:27;99154.50;;;10.83;81.15
28935;BME280;16044;52.726;-2.108;2022-09-27T10:56:59;99157.81;;;10.98;81.19
28935;BME280;16044;52.726;-2.108;2022-09-27T10:59:33;99157.16;;;11.16;80.41
28935;BME280;16044;52.726;-2.108;2022-09-27T11:02:03;99151.50;;;11.24;80.63
28935;BME280;16044;52.726;-2.108;2022-09-27T11:04:33;99143.56;;;11.29;80.73
28935;BME280;16044;52.726;-2.108;2022-09-27T11:07:16;99145.59;;;11.34;79.92
28935;BME280;16044;52.726;-2.108;2022-09-27T11:09:58;99142.25;;;11.39;78.81
28935;BME280;16044;52.726;-2.108;2022-09-27T11:12:30;99131.38;;;11.45;78.42
28935;BME280;16044;52.726;-2.108;2022-09-27T11:15:04;99141.19;;;11.46;77.47
28935;BME280;16044;52.726;-2.108;2022-09-27T11:17:48;99128.91;;;11.37;77.40
28935;BME280;16044;52.726;-2.108;2022-09-27T11:23:29;99120.97;;;11.42;76.16
28935;BME280;16044;52.726;-2.108;2022-09-27T11:26:33;99121.78;;;11.43;75.02
28935;BME280;16044;52.726;-2.108;2022-09-27T11:32:18;99118.44;;;11.47;75.19
28935;BME280;16044;52.726;-2.108;2022-09-27T11:46:35;99119.16;;;11.68;74.64
28935;BME280;16044;52.726;-2.108;2022-09-27T11:58:24;99111.19;;;12.37;72.23
28935;BME280;16044;52.726;-2.108;2022-09-27T12:09:46;99108.38;;;12.68;68.21
28935;BME280;16044;52.726;-2.108;2022-09-27T12:12:35;99102.56;;;12.65;67.57
28935;BME280;16044;52.726;-2.108;2022-09-27T12:15:13;99092.94;;;12.62;67.05
28935;BME280;16044;52.726;-2.108;2022-09-27T12:17:45;99091.16;;;12.75;67.57
28935;BME280;16044;52.726;-2.108;2022-09-27T12:20:21;99091.91;;;12.63;65.59
28935;BME280;16044;52.726;-2.108;2022-09-27T12:25:28;99081.81;;;12.45;66.96
28935;BME280;16044;52.726;-2.108;2022-09-27T12:28:32;99089.75;;;12.47;67.51
28935;BME280;16044;52.726;-2.108;2022-09-27T12:31:10;99094.59;;;12.45;68.47
28935;BME280;16044;52.726;-2.108;2022-09-27T12:40:14;99088.09;;;12.21;68.83
28935;BME280;16044;52.726;-2.108;2022-09-27T12:42:59;99085.28;;;12.09;68.88
28935;BME280;16044;52.726;-2.108;2022-09-27T12:52:01;99078.97;;;11.83;70.17
28935;BME280;16044;52.726;-2.108;2022-09-27T12:57:45;99085.03;;;11.85;70.27
28935;BME280;16044;52.726;-2.108;2022-09-27T13:00:35;99082.75;;;11.82;70.51
28935;BME280;16044;52.726;-2.108;2022-09-27T13:12:17;99082.44;;;11.65;69.66
28935;BME280;16044;52.726;-2.108;2022-09-27T13:15:12;99090.44;;;11.54;69.27
28935;BME280;16044;52.726;-2.108;2022-09-27T13:26:03;99090.16;;;11.23;71.64
28935;BME280;16044;52.726;-2.108;2022-09-27T13:31:11;99098.06;;;11.31;73.70
28935;BME280;16044;52.726;-2.108;2022-09-27T13:33:52;99084.69;;;11.30;73.62
28935;BME280;16044;52.726;-2.108;2022-09-27T13:46:59;99057.34;;;11.70;73.61
28935;BME280;16044;52.726;-2.108;2022-09-27T13:49:48;99068.06;;;11.97;72.47
28935;BME280;16044;52.726;-2.108;2022-09-27T13:55:01;99046.81;;;12.12;72.31
28935;BME280;16044;52.726;-2.108;2022-09-27T14:00:26;99069.97;;;12.15;72.00
28935;BME280;16044;52.726;-2.108;2022-09-27T14:03:06;99059.50;;;12.18;73.02
28935;BME280;16044;52.726;-2.108;2022-09-27T14:05:54;99046.53;;;12.20;74.16
28935;BME280;16044;52.726;-2.108;2022-09-27T14:08:29;99046.94;;;12.24;73.58
28935;BME280;16044;52.726;-2.108;2022-09-27T14:11:03;99047.81;;;12.18;73.99
28935;BME280;16044;52.726;-2.108;2022-09-27T14:13:36;99049.97;;;12.09;73.01
28935;BME280;16044;52.726;-2.108;2022-09-27T14:16:04;99044.94;;;12.13;73.23
28935;BME280;16044;52.726;-2.108;2022-09-27T14:18:33;99043.22;;;12.18;73.24
28935;BME280;16044;52.726;-2.108;2022-09-27T14:21:31;99045.75;;;12.13;73.13
28935;BME280;16044;52.726;-2.108;2022-09-27T14:27:23;99037.66;;;12.32;72.25
28935;BME280;16044;52.726;-2.108;2022-09-27T14:29:58;99039.97;;;12.28;71.14
28935;BME280;16044;52.726;-2.108;2022-09-27T14:32:33;99039.34;;;12.33;71.68
28935;BME280;16044;52.726;-2.108;2022-09-27T14:35:03;99036.75;;;12.38;71.29
28935;BME280;16044;52.726;-2.108;2022-09-27T14:38:11;99037.34;;;12.40;70.39
28935;BME280;16044;52.726;-2.108;2022-09-27T14:41:01;99027.56;;;12.39;70.45
28935;BME280;16044;52.726;-2.108;2022-09-27T14:43:29;99023.78;;;12.40;70.56
28935;BME280;16044;52.726;-2.108;2022-09-27T14:46:01;99037.97;;;12.42;70.59
28935;BME280;16044;52.726;-2.108;2022-09-27T14:48:37;99027.84;;;12.31;70.88
28935;BME280;16044;52.726;-2.108;2022-09-27T14:53:49;99034.41;;;12.41;70.71
28935;BME280;16044;52.726;-2.108;2022-09-27T14:56:34;99035.31;;;12.35;70.79
28935;BME280;16044;52.726;-2.108;2022-09-27T14:59:15;99030.88;;;12.41;69.95
28935;BME280;16044;52.726;-2.108;2022-09-27T15:01:52;99031.91;;;12.40;69.97
28935;BME280;16044;52.726;-2.108;2022-09-27T15:04:21;99027.19;;;12.35;70.21
28935;BME280;16044;52.726;-2.108;2022-09-27T15:06:49;99021.19;;;12.26;70.46
28935;BME280;16044;52.726;-2.108;2022-09-27T15:09:17;99025.13;;;12.31;71.24
28935;BME280;16044;52.726;-2.108;2022-09-27T15:11:50;99021.44;;;12.25;71.78
28935;BME280;16044;52.726;-2.108;2022-09-27T15:14:20;99030.78;;;12.04;71.88
28935;BME280;16044;52.726;-2.108;2022-09-27T15:16:50;99024.59;;;11.97;71.88
28935;BME280;16044;52.726;-2.108;2022-09-27T15:19:25;99027.63;;;11.82;72.34
28935;BME280;16044;52.726;-2.108;2022-09-27T15:21:54;99018.19;;;11.84;72.25
28935;BME280;16044;52.726;-2.108;2022-09-27T15:25:02;99015.97;;;11.75;72.96
28935;BME280;16044;52.726;-2.108;2022-09-27T15:27:33;99018.91;;;11.73;72.77
28935;BME280;16044;52.726;-2.108;2022-09-27T15:30:00;99015.41;;;11.66;72.76
28935;BME280;16044;52.726;-2.108;2022-09-27T15:32:27;99012.16;;;11.50;73.14
28935;BME280;16044;52.726;-2.108;2022-09-27T15:34:55;99012.53;;;11.29;73.51
28935;BME280;16044;52.726;-2.108;2022-09-27T15:37:32;99010.41;;;11.31;73.44
28935;BME280;16044;52.726;-2.108;2022-09-27T15:42:59;99016.75;;;11.18;74.75
28935;BME280;16044;52.726;-2.108;2022-09-27T15:45:34;99015.13;;;11.10;74.89
28935;BME280;16044;52.726;-2.108;2022-09-27T15:48:12;99004.28;;;11.10;75.01
28935;BME280;16044;52.726;-2.108;2022-09-27T15:50:42;99012.59;;;11.16;75.20
28935;BME280;16044;52.726;-2.108;2022-09-27T15:53:09;99016.28;;;11.28;75.05
28935;BME280;16044;52.726;-2.108;2022-09-27T15:55:41;99005.03;;;11.24;74.79
28935;BME280;16044;52.726;-2.108;2022-09-27T15:58:15;99014.53;;;11.40;74.01
28935;BME280;16044;52.726;-2.108;2022-09-27T16:01:01;99011.97;;;11.45;73.65
28935;BME280;16044;52.726;-2.108;2022-09-27T16:03:34;99002.59;;;11.48;73.57
28935;BME280;16044;52.726;-2.108;2022-09-27T16:06:02;99009.91;;;11.47;73.57
28935;BME280;16044;52.726;-2.108;2022-09-27T16:08:29;99014.28;;;11.48;73.27
28935;BME280;16044;52.726;-2.108;2022-09-27T16:10:57;99012.78;;;11.52;72.72
28935;BME280;16044;52.726;-2.108;2022-09-27T16:13:25;99006.75;;;11.50;73.08
28935;BME280;16044;52.726;-2.108;2022-09-27T16:15:58;99013.16;;;11.63;72.82
28935;BME280;16044;52.726;-2.108;2022-09-27T16:18:27;99005.16;;;11.68;72.96